createdAt,value
2022-09-12T00:00:10.709Z,100.00
2022-09-12T00:02:37.373Z,100.00
2022-09-12T00:05:04.273Z,100.00
2022-09-12T00:07:30.645Z,100.00
2022-09-12T00:09:57.190Z,100.00
2022-09-12T00:12:23.604Z,100.00
2022-09-12T00:14:50.004Z,100.00
2022-09-12T00:17:16.407Z,100.00
2022-09-12T00:19:42.872Z,100.00
2022-09-12T00:22:09.343Z,100.00
2022-09-12T00:24:35.717Z,100.00
2022-09-12T00:27:02.090Z,100.00
2022-09-12T00:29:28.509Z,100.00
2022-09-12T00:31:54.971Z,100.00
2022-09-12T00:34:21.393Z,100.00
2022-09-12T00:36:47.840Z,100.00
2022-09-12T00:39:17.802Z,100.00
2022-09-12T00:41:44.676Z,100.00
2022-09-12T00:44:17.069Z,100.00
2022-09-12T00:46:54.762Z,100.00
2022-09-12T00:49:29.428Z,100.00
2022-09-12T00:52:10.809Z,100.00
2022-09-12T00:54:57.204Z,100.00
2022-09-12T00:57:27.949Z,100.00
2022-09-12T00:59:59.366Z,100.00
2022-09-12T01:02:26.498Z,100.00
2022-09-12T01:04:53.204Z,100.00
2022-09-12T01:07:21.112Z,100.00
2022-09-12T01:09:47.873Z,100.00
2022-09-12T01:12:15.467Z,100.00
2022-09-12T01:14:41.977Z,100.00
2022-09-12T01:17:12.246Z,100.00
2022-09-12T01:20:05.312Z,100.00
2022-09-12T01:22:53.285Z,100.00
2022-09-12T01:25:22.608Z,100.00
2022-09-12T01:28:04.227Z,100.00
2022-09-12T01:30:42.588Z,100.00
2022-09-12T01:33:24.206Z,100.00
2022-09-12T01:36:11.296Z,100.00
2022-09-12T01:39:00.093Z,100.00
2022-09-12T01:41:38.679Z,100.00
2022-09-12T01:44:12.888Z,100.00
2022-09-12T01:46:49.198Z,100.00
2022-09-12T01:49:24.558Z,100.00
2022-09-12T01:52:10.645Z,100.00
2022-09-12T01:54:45.927Z,100.00
2022-09-12T01:57:25.594Z,100.00
2022-09-12T01:59:57.334Z,100.00
2022-09-12T02:02:35.450Z,100.00
2022-09-12T02:05:10.774Z,100.00
2022-09-12T02:07:52.036Z,100.00
2022-09-12T02:10:27.125Z,100.00
2022-09-12T02:13:07.122Z,100.00
2022-09-12T02:15:38.368Z,100.00
2022-09-12T02:18:06.512Z,100.00
2022-09-12T02:20:54.617Z,100.00
2022-09-12T02:23:26.376Z,100.00
2022-09-12T02:25:57.717Z,100.00
2022-09-12T02:28:38.305Z,100.00
2022-09-12T02:31:23.529Z,100.00
2022-09-12T02:34:29.044Z,100.00
2022-09-12T02:37:05.776Z,100.00
2022-09-12T02:39:32.773Z,100.00
2022-09-12T02:42:02.012Z,100.00
2022-09-12T02:44:30.384Z,100.00
2022-09-12T02:47:04.164Z,100.00
2022-09-12T02:49:30.787Z,100.00
2022-09-12T02:51:57.396Z,100.00
2022-09-12T02:54:24.948Z,100.00
2022-09-12T02:56:51.688Z,100.00
2022-09-12T02:59:20.571Z,100.00
2022-09-12T03:02:05.159Z,100.00
2022-09-12T03:04:44.461Z,100.00
2022-09-12T03:07:25.624Z,100.00
2022-09-12T03:10:22.695Z,100.00
2022-09-12T03:12:55.857Z,100.00
2022-09-12T03:15:51.802Z,100.00
2022-09-12T03:18:31.630Z,100.00
2022-09-12T03:21:10.186Z,100.00
2022-09-12T03:24:10.570Z,100.00
2022-09-12T03:26:52.661Z,100.00
2022-09-12T03:29:20.213Z,100.00
2022-09-12T03:31:55.233Z,100.00
2022-09-12T03:34:23.164Z,100.00
2022-09-12T03:36:50.330Z,100.00
2022-09-12T03:39:17.132Z,100.00
2022-09-12T03:41:44.058Z,100.00
2022-09-12T03:44:10.445Z,100.00
2022-09-12T03:46:36.915Z,100.00
2022-09-12T03:49:03.451Z,100.00
2022-09-12T03:51:29.956Z,100.00
2022-09-12T03:53:56.377Z,100.00
2022-09-12T03:56:22.836Z,100.00
2022-09-12T03:58:49.372Z,100.00
2022-09-12T04:01:18.350Z,100.00
2022-09-12T04:03:49.909Z,100.00
2022-09-12T04:06:18.916Z,100.00
2022-09-12T04:08:49.021Z,100.00
2022-09-12T04:11:16.425Z,100.00
2022-09-12T04:13:44.791Z,100.00
2022-09-12T04:16:12.819Z,100.00
2022-09-12T04:18:39.967Z,100.00
2022-09-12T04:21:12.189Z,100.00
2022-09-12T04:23:38.664Z,100.00
2022-09-12T04:26:07.591Z,100.00
2022-09-12T04:28:35.991Z,100.00
2022-09-12T04:31:06.009Z,100.00
2022-09-12T04:33:32.474Z,100.00
2022-09-12T04:36:07.534Z,100.00
2022-09-12T04:38:34.955Z,100.00
2022-09-12T04:41:01.485Z,100.00
2022-09-12T04:43:28.023Z,100.00
2022-09-12T04:45:55.476Z,100.00
2022-09-12T04:48:21.909Z,100.00
2022-09-12T04:50:48.295Z,100.00
2022-09-12T04:53:14.674Z,100.00
2022-09-12T04:55:41.117Z,100.00
2022-09-12T04:58:07.513Z,100.00
2022-09-12T05:00:34.825Z,100.00
2022-09-12T05:03:01.312Z,100.00
2022-09-12T05:05:27.698Z,100.00
2022-09-12T05:07:54.128Z,100.00
2022-09-12T05:10:20.553Z,100.00
2022-09-12T05:12:47.258Z,100.00
2022-09-12T05:15:13.714Z,100.00
2022-09-12T05:17:40.105Z,100.00
2022-09-12T05:20:07.004Z,100.00
2022-09-12T05:22:33.407Z,100.00
2022-09-12T05:24:59.825Z,100.00
2022-09-12T05:27:26.221Z,100.00
2022-09-12T05:29:52.617Z,100.00
2022-09-12T05:32:19.047Z,100.00
2022-09-12T05:34:45.576Z,100.00
2022-09-12T05:37:12.982Z,100.00
2022-09-12T05:39:39.482Z,100.00
2022-09-12T05:42:06.082Z,100.00
2022-09-12T05:44:33.225Z,100.00
2022-09-12T05:46:59.637Z,100.00
2022-09-12T05:49:26.139Z,100.00
2022-09-12T05:51:52.694Z,100.00
2022-09-12T05:54:20.454Z,100.00
2022-09-12T05:56:48.280Z,100.00
2022-09-12T05:59:17.695Z,100.00
2022-09-12T06:01:44.676Z,100.00
2022-09-12T06:04:12.055Z,100.00
2022-09-12T06:06:45.027Z,100.00
2022-09-12T06:09:12.594Z,100.00
2022-09-12T06:11:42.617Z,100.00
2022-09-12T06:14:11.445Z,100.00
2022-09-12T06:16:39.158Z,100.00
2022-09-12T06:19:16.013Z,100.00
2022-09-12T06:21:42.578Z,100.00
2022-09-12T06:24:09.240Z,100.00
2022-09-12T06:26:36.380Z,100.00
2022-09-12T06:29:03.324Z,100.00
2022-09-12T06:31:33.489Z,100.00
2022-09-12T06:34:02.308Z,100.00
2022-09-12T06:36:32.081Z,100.00
2022-09-12T06:39:01.070Z,100.00
2022-09-12T06:41:29.021Z,100.00
2022-09-12T06:43:55.581Z,100.00
2022-09-12T06:46:22.126Z,100.00
2022-09-12T06:48:50.552Z,100.00
2022-09-12T06:51:18.857Z,100.00
2022-09-12T06:53:46.654Z,100.00
2022-09-12T06:56:21.627Z,100.00
2022-09-12T06:58:49.946Z,100.00
2022-09-12T07:01:16.582Z,100.00
2022-09-12T07:03:47.095Z,100.00
2022-09-12T07:06:15.164Z,100.00
2022-09-12T07:08:41.919Z,100.00
2022-09-12T07:11:11.488Z,100.00
2022-09-12T07:13:39.248Z,100.00
2022-09-12T07:16:06.240Z,100.00
2022-09-12T07:18:34.737Z,100.00
2022-09-12T07:21:02.587Z,100.00
2022-09-12T07:23:30.276Z,100.00
2022-09-12T07:26:01.146Z,100.00
2022-09-12T07:28:28.575Z,100.00
2022-09-12T07:30:56.168Z,100.00
2022-09-12T07:33:29.431Z,100.00
2022-09-12T07:36:00.391Z,100.00
2022-09-12T07:38:26.687Z,100.00
2022-09-12T07:40:53.486Z,100.00
2022-09-12T07:43:19.889Z,100.00
2022-09-12T07:45:46.539Z,100.00
2022-09-12T07:48:13.885Z,100.00
2022-09-12T07:50:44.985Z,100.00
2022-09-12T07:53:12.690Z,100.00
2022-09-12T07:55:39.341Z,100.00
2022-09-12T07:58:05.729Z,100.00
2022-09-12T08:00:35.897Z,100.00
2022-09-12T08:03:07.192Z,100.00
2022-09-12T08:05:33.618Z,100.00
2022-09-12T08:08:00.041Z,100.00
2022-09-12T08:10:26.422Z,100.00
2022-09-12T08:12:52.912Z,100.00
2022-09-12T08:15:20.249Z,100.00
2022-09-12T08:17:46.648Z,100.00
2022-09-12T08:20:13.145Z,100.00
2022-09-12T08:22:40.666Z,100.00
2022-09-12T08:25:08.628Z,100.00
2022-09-12T08:27:35.075Z,100.00
2022-09-12T08:30:01.762Z,100.00
2022-09-12T08:32:28.151Z,100.00
2022-09-12T08:34:54.616Z,100.00
2022-09-12T08:37:21.236Z,100.00
2022-09-12T08:39:47.779Z,99.88
2022-09-12T08:42:30.160Z,99.90
2022-09-12T08:45:30.836Z,100.00
2022-09-12T08:47:57.648Z,100.00
2022-09-12T08:50:24.049Z,98.67
2022-09-12T08:52:56.704Z,99.64
2022-09-12T08:55:58.557Z,99.12
2022-09-12T08:58:27.938Z,98.10
2022-09-12T09:01:22.142Z,98.56
2022-09-12T09:04:03.896Z,97.59
2022-09-12T09:07:15.735Z,96.76
2022-09-12T09:10:08.276Z,96.05
2022-09-12T09:12:52.793Z,94.03
2022-09-12T09:15:24.702Z,97.15
2022-09-12T09:17:54.989Z,96.07
2022-09-12T09:20:39.943Z,95.72
2022-09-12T09:23:12.837Z,94.58
2022-09-12T09:25:58.018Z,93.80
2022-09-12T09:28:39.489Z,96.33
2022-09-12T09:31:14.953Z,94.34
2022-09-12T09:33:41.436Z,95.40
2022-09-12T09:36:18.302Z,92.05
2022-09-12T09:39:30.040Z,92.93
2022-09-12T09:42:21.411Z,93.79
2022-09-12T09:44:49.099Z,93.39
2022-09-12T09:47:18.184Z,92.53
2022-09-12T09:49:44.659Z,92.35
2022-09-12T09:52:16.129Z,92.13
2022-09-12T09:54:53.218Z,90.13
2022-09-12T09:57:39.362Z,89.72
2022-09-12T10:00:32.863Z,88.92
2022-09-12T10:03:14.403Z,89.60
2022-09-12T10:06:03.866Z,90.21
2022-09-12T10:08:32.484Z,92.80
2022-09-12T10:11:20.795Z,88.31
2022-09-12T10:13:59.897Z,89.11
2022-09-12T10:16:34.859Z,88.38
2022-09-12T10:19:03.093Z,87.86
2022-09-12T10:21:41.317Z,88.22
2022-09-12T10:24:32.821Z,86.79
2022-09-12T10:27:08.515Z,86.80
2022-09-12T10:30:00.239Z,86.08
2022-09-12T10:32:30.980Z,86.78
2022-09-12T10:35:04.153Z,86.50
2022-09-12T10:37:34.768Z,86.79
2022-09-12T10:40:03.913Z,86.19
2022-09-12T10:42:49.511Z,87.17
2022-09-12T10:45:30.866Z,87.18
2022-09-12T10:48:06.861Z,85.93
2022-09-12T10:50:42.152Z,87.22
2022-09-12T10:53:33.608Z,86.15
2022-09-12T10:56:13.485Z,85.22
2022-09-12T10:58:49.405Z,84.42
2022-09-12T11:01:37.267Z,84.48
2022-09-12T11:04:18.757Z,81.53
2022-09-12T11:07:33.271Z,79.96
2022-09-12T11:10:21.710Z,77.86
2022-09-12T11:13:23.392Z,80.42
2022-09-12T11:16:08.317Z,83.68
2022-09-12T11:19:12.173Z,82.72
2022-09-12T11:21:38.506Z,79.97
2022-09-12T11:24:26.629Z,78.31
2022-09-12T11:27:08.054Z,77.83
2022-09-12T11:29:40.072Z,81.62
2022-09-12T11:32:25.273Z,78.32
2022-09-12T11:35:12.850Z,79.42
2022-09-12T11:37:52.253Z,79.56
2022-09-12T11:40:54.304Z,77.28
2022-09-12T11:43:25.036Z,78.86
2022-09-12T11:45:52.439Z,76.16
2022-09-12T11:48:28.051Z,77.21
2022-09-12T11:50:54.954Z,76.77
2022-09-12T11:53:31.844Z,77.03
2022-09-12T11:56:11.990Z,77.77
2022-09-12T11:58:41.498Z,77.01
2022-09-12T12:01:36.265Z,72.24
2022-09-12T12:04:11.560Z,73.93
2022-09-12T12:06:53.958Z,73.76
2022-09-12T12:09:20.644Z,73.88
2022-09-12T12:11:56.014Z,71.63
2022-09-12T12:14:33.111Z,73.01
2022-09-12T12:16:59.768Z,74.03
2022-09-12T12:19:37.604Z,71.23
2022-09-12T12:22:16.652Z,71.37
2022-09-12T12:25:04.941Z,70.32
2022-09-12T12:27:53.225Z,69.88
2022-09-12T12:30:31.682Z,68.87
2022-09-12T12:33:02.739Z,70.92
2022-09-12T12:35:59.691Z,69.71
2022-09-12T12:38:32.429Z,69.59
2022-09-12T12:41:16.988Z,67.71
2022-09-12T12:43:45.855Z,68.75
2022-09-12T12:46:18.173Z,68.65
2022-09-12T12:49:02.060Z,69.58
2022-09-12T12:51:34.580Z,68.53
2022-09-12T12:54:03.745Z,68.90
2022-09-12T12:56:40.513Z,66.98
2022-09-12T12:59:17.815Z,69.12
2022-09-12T13:01:51.517Z,69.37
2022-09-12T13:04:24.988Z,69.45
2022-09-12T13:07:32.211Z,66.19
2022-09-12T13:10:00.600Z,67.21
2022-09-12T13:12:35.615Z,66.47
2022-09-12T13:15:04.732Z,65.49
2022-09-12T13:17:41.470Z,65.27
2022-09-12T13:20:30.140Z,65.76
2022-09-12T13:22:57.641Z,65.72
2022-09-12T13:25:33.006Z,66.67
2022-09-12T13:28:02.260Z,65.72
2022-09-12T13:30:31.962Z,67.07
2022-09-12T13:33:08.465Z,65.18
2022-09-12T13:35:39.869Z,66.23
2022-09-12T13:38:26.228Z,64.65
2022-09-12T13:41:22.205Z,63.36
2022-09-12T13:43:49.353Z,65.90
2022-09-12T13:46:30.680Z,65.74
2022-09-12T13:49:00.623Z,66.08
2022-09-12T13:51:30.579Z,65.90
2022-09-12T13:54:02.782Z,65.08
2022-09-12T13:56:29.214Z,63.90
2022-09-12T13:59:00.911Z,63.65
2022-09-12T14:01:42.542Z,63.56
2022-09-12T14:04:45.146Z,63.78
2022-09-12T14:07:20.154Z,66.18
2022-09-12T14:09:54.118Z,66.50
2022-09-12T14:12:30.998Z,65.86
2022-09-12T14:14:57.481Z,66.18
2022-09-12T14:17:31.767Z,64.63
2022-09-12T14:20:05.342Z,63.62
2022-09-12T14:22:34.127Z,64.04
2022-09-12T14:25:01.913Z,65.53
2022-09-12T14:27:51.990Z,64.29
2022-09-12T14:30:37.770Z,63.02
2022-09-12T14:33:09.994Z,63.65
2022-09-12T14:36:18.209Z,63.06
2022-09-12T14:38:48.406Z,63.67
2022-09-12T14:41:24.037Z,63.62
2022-09-12T14:43:54.193Z,63.81
2022-09-12T14:46:30.703Z,61.91
2022-09-12T14:49:18.458Z,61.83
2022-09-12T14:51:51.480Z,61.62
2022-09-12T14:54:30.320Z,58.78
2022-09-12T14:57:39.826Z,57.95
2022-09-12T15:00:12.093Z,59.09
2022-09-12T15:02:40.232Z,59.01
2022-09-12T15:05:06.568Z,59.22
2022-09-12T15:07:35.205Z,59.91
2022-09-12T15:10:21.958Z,58.56
2022-09-12T15:12:49.148Z,58.55
2022-09-12T15:15:18.578Z,57.34
2022-09-12T15:17:45.177Z,57.87
2022-09-12T15:20:13.258Z,57.70
2022-09-12T15:22:41.288Z,56.47
2022-09-12T15:25:08.043Z,56.36
2022-09-12T15:27:34.452Z,55.88
2022-09-12T15:30:00.919Z,55.86
2022-09-12T15:32:29.698Z,56.23
2022-09-12T15:34:56.445Z,56.53
2022-09-12T15:37:24.157Z,55.62
2022-09-12T15:39:51.653Z,56.08
2022-09-12T15:42:26.707Z,55.96
2022-09-12T15:44:53.854Z,55.53
2022-09-12T15:47:20.369Z,55.66
2022-09-12T15:49:46.885Z,55.66
2022-09-12T15:52:15.730Z,56.08
2022-09-12T15:54:43.170Z,55.83
2022-09-12T15:57:09.961Z,57.10
2022-09-12T15:59:36.606Z,55.82
2022-09-12T16:02:03.235Z,56.09
2022-09-12T16:04:30.498Z,56.56
2022-09-12T16:06:57.011Z,55.62
2022-09-12T16:09:23.982Z,56.09
2022-09-12T16:11:50.585Z,55.98
2022-09-12T16:14:18.651Z,56.05
2022-09-12T16:16:51.070Z,56.52
2022-09-12T16:19:17.518Z,56.47
2022-09-12T16:21:44.036Z,56.47
2022-09-12T16:24:10.436Z,55.88
2022-09-12T16:26:36.837Z,55.94
2022-09-12T16:29:03.660Z,55.96
2022-09-12T16:31:30.947Z,55.60
2022-09-12T16:33:57.366Z,56.30
2022-09-12T16:36:24.540Z,56.12
2022-09-12T16:38:53.221Z,55.95
2022-09-12T16:41:27.430Z,56.09
2022-09-12T16:43:54.228Z,56.64
2022-09-12T16:46:26.453Z,56.42
2022-09-12T16:48:54.653Z,57.09
2022-09-12T16:51:24.742Z,57.62
2022-09-12T16:53:51.249Z,57.48
2022-09-12T16:56:18.566Z,57.12
2022-09-12T16:58:45.416Z,57.50
2022-09-12T17:01:17.914Z,58.51
2022-09-12T17:03:44.791Z,58.42
2022-09-12T17:06:13.681Z,58.87
2022-09-12T17:08:42.869Z,59.41
2022-09-12T17:11:15.570Z,59.23
2022-09-12T17:14:03.721Z,60.05
2022-09-12T17:16:33.046Z,60.63
2022-09-12T17:18:59.479Z,61.24
2022-09-12T17:21:26.072Z,61.49
2022-09-12T17:23:52.500Z,62.17
2022-09-12T17:26:18.982Z,62.64
2022-09-12T17:28:46.381Z,63.18
2022-09-12T17:31:14.614Z,64.19
2022-09-12T17:33:41.976Z,64.80
2022-09-12T17:36:15.292Z,65.75
2022-09-12T17:38:43.433Z,66.18
2022-09-12T17:41:11.372Z,66.70
2022-09-12T17:43:38.086Z,67.34
2022-09-12T17:46:05.186Z,67.37
2022-09-12T17:48:32.409Z,67.49
2022-09-12T17:50:59.295Z,68.14
2022-09-12T17:53:25.823Z,68.75
2022-09-12T17:55:54.366Z,68.26
2022-09-12T17:58:20.935Z,68.84
2022-09-12T18:01:05.792Z,69.16
2022-09-12T18:03:35.112Z,69.40
2022-09-12T18:06:01.524Z,69.69
2022-09-12T18:08:27.942Z,70.23
2022-09-12T18:10:54.387Z,70.31
2022-09-12T18:13:20.781Z,70.70
2022-09-12T18:15:47.183Z,71.13
2022-09-12T18:18:14.028Z,71.27
2022-09-12T18:20:50.029Z,71.99
2022-09-12T18:23:16.448Z,71.95
2022-09-12T18:25:42.839Z,72.48
2022-09-12T18:28:09.351Z,73.10
2022-09-12T18:30:35.809Z,75.02
2022-09-12T18:33:02.276Z,77.40
2022-09-12T18:35:28.667Z,78.10
2022-09-12T18:37:55.667Z,79.56
2022-09-12T18:40:22.154Z,79.05
2022-09-12T18:42:48.673Z,79.40
2022-09-12T18:45:15.220Z,80.83
2022-09-12T18:47:41.925Z,79.89
2022-09-12T18:50:09.068Z,80.81
2022-09-12T18:52:35.470Z,82.76
2022-09-12T18:55:01.872Z,84.17
2022-09-12T18:57:31.490Z,85.32
2022-09-12T18:59:59.561Z,85.04
2022-09-12T19:02:28.455Z,83.87
2022-09-12T19:04:54.866Z,84.26
2022-09-12T19:07:21.902Z,84.43
2022-09-12T19:09:48.329Z,82.66
2022-09-12T19:12:14.736Z,82.46
2022-09-12T19:14:41.217Z,82.69
2022-09-12T19:17:07.998Z,82.20
2022-09-12T19:19:37.639Z,82.10
2022-09-12T19:22:06.848Z,81.65
2022-09-12T19:24:33.807Z,80.66
2022-09-12T19:27:00.190Z,80.31
2022-09-12T19:29:26.660Z,80.22
2022-09-12T19:31:53.132Z,80.32
2022-09-12T19:34:19.521Z,80.42
2022-09-12T19:36:47.328Z,81.62
2022-09-12T19:39:16.185Z,83.07
2022-09-12T19:41:43.193Z,83.83
2022-09-12T19:44:09.639Z,83.68
2022-09-12T19:46:36.221Z,83.13
2022-09-12T19:49:03.319Z,82.68
2022-09-12T19:51:29.744Z,83.04
2022-09-12T19:53:56.167Z,82.85
2022-09-12T19:56:22.632Z,82.92
2022-09-12T19:58:55.829Z,83.00
2022-09-12T20:01:27.688Z,83.21
2022-09-12T20:03:54.266Z,83.43
2022-09-12T20:06:20.993Z,83.50
2022-09-12T20:08:47.611Z,83.64
2022-09-12T20:11:19.444Z,84.09
2022-09-12T20:13:46.103Z,84.44
2022-09-12T20:16:21.634Z,84.79
2022-09-12T20:18:54.464Z,85.03
2022-09-12T20:21:25.377Z,85.39
2022-09-12T20:23:52.243Z,85.79
2022-09-12T20:26:20.165Z,87.37
2022-09-12T20:28:46.675Z,88.25
2022-09-12T20:31:15.391Z,87.88
2022-09-12T20:33:42.641Z,87.66
2022-09-12T20:36:20.413Z,87.21
2022-09-12T20:38:52.689Z,88.15
2022-09-12T20:41:20.602Z,87.56
2022-09-12T20:43:54.467Z,88.60
2022-09-12T20:46:22.870Z,89.20
2022-09-12T20:48:50.761Z,90.62
2022-09-12T20:51:18.042Z,90.88
2022-09-12T20:53:44.441Z,90.99
2022-09-12T20:56:11.045Z,91.44
2022-09-12T20:58:40.493Z,92.56
2022-09-12T21:01:11.422Z,93.18
2022-09-12T21:03:39.239Z,93.06
2022-09-12T21:06:06.873Z,92.94
2022-09-12T21:08:34.017Z,93.30
2022-09-12T21:11:00.829Z,93.52
2022-09-12T21:13:27.345Z,93.07
2022-09-12T21:16:04.417Z,92.21
2022-09-12T21:18:32.025Z,91.93
2022-09-12T21:20:58.857Z,91.92
2022-09-12T21:23:26.850Z,93.13
2022-09-12T21:25:53.432Z,94.70
2022-09-12T21:28:20.683Z,95.24
2022-09-12T21:30:50.785Z,95.47
2022-09-12T21:33:19.061Z,95.12
2022-09-12T21:35:46.042Z,95.63
2022-09-12T21:38:12.774Z,95.49
2022-09-12T21:40:39.188Z,95.93
2022-09-12T21:43:09.212Z,96.54
2022-09-12T21:45:38.463Z,96.36
2022-09-12T21:48:05.030Z,96.46
2022-09-12T21:50:31.434Z,96.93
2022-09-12T21:52:57.876Z,96.59
2022-09-12T21:55:27.045Z,96.80
2022-09-12T21:57:54.716Z,96.86
2022-09-12T22:00:21.654Z,97.78
2022-09-12T22:02:48.694Z,98.47
2022-09-12T22:05:15.650Z,98.38
2022-09-12T22:07:42.208Z,98.88
2022-09-12T22:10:09.015Z,99.53
2022-09-12T22:12:35.426Z,99.64
2022-09-12T22:15:17.424Z,99.57
2022-09-12T22:17:48.196Z,100.00
2022-09-12T22:20:14.781Z,100.00
2022-09-12T22:22:59.993Z,100.00
2022-09-12T22:25:26.528Z,100.00
2022-09-12T22:27:54.372Z,100.00
2022-09-12T22:30:21.735Z,100.00
2022-09-12T22:32:49.907Z,100.00
2022-09-12T22:35:17.722Z,100.00
2022-09-12T22:37:44.556Z,100.00
2022-09-12T22:40:11.857Z,100.00
2022-09-12T22:42:38.657Z,100.00
2022-09-12T22:45:05.921Z,100.00
2022-09-12T22:47:32.335Z,100.00
2022-09-12T22:49:58.811Z,100.00
2022-09-12T22:52:25.209Z,100.00
2022-09-12T22:54:51.705Z,100.00
2022-09-12T22:57:18.189Z,100.00
2022-09-12T22:59:44.702Z,100.00
2022-09-12T23:02:11.097Z,100.00
2022-09-12T23:04:37.664Z,100.00
2022-09-12T23:07:04.156Z,100.00
2022-09-12T23:09:35.124Z,100.00
2022-09-12T23:12:02.047Z,100.00
2022-09-12T23:14:28.478Z,100.00
2022-09-12T23:16:54.912Z,100.00
2022-09-12T23:19:21.310Z,100.00
2022-09-12T23:21:47.708Z,100.00
2022-09-12T23:24:14.542Z,100.00
2022-09-12T23:26:40.932Z,100.00
2022-09-12T23:29:07.353Z,100.00
2022-09-12T23:31:34.150Z,100.00
2022-09-12T23:34:03.347Z,100.00
2022-09-12T23:36:30.185Z,100.00
2022-09-12T23:38:56.610Z,100.00
2022-09-12T23:41:24.020Z,100.00
2022-09-12T23:43:50.488Z,100.00
2022-09-12T23:46:18.168Z,100.00
2022-09-12T23:48:45.195Z,100.00
2022-09-12T23:51:12.311Z,100.00
2022-09-12T23:53:39.356Z,100.00
2022-09-12T23:56:06.517Z,100.00
2022-09-12T23:58:33.620Z,100.00
